Roosevelt Roads NAS, Puerto Rico
Current Conditions -  °F | °C
As of 6:53 PM on Thursday 27 Nov 2014 (Local Time) from TJNR Reporting Station
Few Clouds Few Clouds  
Wind Chill: 75°   Ceiling: Unl
Heat Index: 75°   Visibility: 10mi
Dew Point: 70°   Wind: 0mph
Humidity: 84%   Direction: NA
Pressure: 29.97"   Gusts: NA
Location:  18.25°N, 65.63°W
Report Text: TJNR 272253Z AUTO 00000KT 10SM FEW095 24/21 A2997 RMK AO2 SLP148 T02390211 $
Loading
Personal Weather Stations






























Interactive Weather Map New forecast layout! Learn more

10-Day Weather Forecast

Advertisements
Track Severe Weather on mobile